SAS1326 ENGM-ENAL
Flight info
| Callsign | SAS1326 |
|---|---|
| Flight time | 0h 56m |
| Altitude | 28000 |
| Route | EVTOG DCT UTRUF DCT UFGUG DCT OBITI |
| Aircraft | A320/M-SDE3FGHIRWY/LB1 |
Departure
| Time | 2026-05-08 15:00 |
|---|---|
| Airport | Oslo-Gardermoen International Airport (ENGM) |
Arrival
| Time | 2026-05-08 15:56 |
|---|---|
| Airport | Ålesund Airport (ENAL) |
| Time | Latitude | Longitude | Altitude | Speed | Heading |
|---|---|---|---|---|---|
| 2026-05-08 14:34 | 60.19550 | 11.09500 | 691 ft | 0 kts | 196° |
| 2026-05-08 14:53 | 60.19567 | 11.09510 | 689 ft | 4 kts | 196° |
| 2026-05-08 14:53 | 60.19593 | 11.09525 | 684 ft | 4 kts | 196° |
| 2026-05-08 14:54 | 60.19599 | 11.09528 | 682 ft | 0 kts | 196° |
| 2026-05-08 14:56 | 60.19595 | 11.09472 | 684 ft | 10 kts | 297° |
| 2026-05-08 14:56 | 60.19686 | 11.09354 | 688 ft | 20 kts | 297° |
| 2026-05-08 14:57 | 60.19727 | 11.09075 | 685 ft | 22 kts | 286° |
| 2026-05-08 14:57 | 60.19765 | 11.08804 | 685 ft | 13 kts | 285° |
| 2026-05-08 14:57 | 60.19842 | 11.08707 | 682 ft | 18 kts | 19° |
| 2026-05-08 14:57 | 60.19966 | 11.08780 | 680 ft | 20 kts | 15° |
| 2026-05-08 14:58 | 60.20106 | 11.08861 | 682 ft | 21 kts | 16° |
| 2026-05-08 14:58 | 60.20244 | 11.08941 | 683 ft | 21 kts | 16° |
| 2026-05-08 14:58 | 60.20392 | 11.09026 | 682 ft | 23 kts | 15° |
| 2026-05-08 14:58 | 60.20538 | 11.09111 | 683 ft | 12 kts | 16° |
| 2026-05-08 14:59 | 60.20627 | 11.09141 | 680 ft | 14 kts | 334° |
| 2026-05-08 14:59 | 60.20690 | 11.08738 | 682 ft | 18 kts | 285° |
| 2026-05-08 14:59 | 60.20642 | 11.08608 | 683 ft | 13 kts | 194° |
| 2026-05-08 15:00 | 60.20440 | 11.08492 | 683 ft | 60 kts | 195° |
| 2026-05-08 15:00 | 60.19847 | 11.08147 | 683 ft | 115 kts | 196° |
| 2026-05-08 15:00 | 60.18957 | 11.07585 | 868 ft | 136 kts | 200° |
| 2026-05-08 15:00 | 60.18078 | 11.07008 | 1420 ft | 134 kts | 198° |
| 2026-05-08 15:01 | 60.17132 | 11.06312 | 1661 ft | 156 kts | 210° |
| 2026-05-08 15:01 | 60.16291 | 11.04882 | 2141 ft | 169 kts | 229° |
| 2026-05-08 15:01 | 60.15693 | 11.02663 | 2375 ft | 193 kts | 243° |
| 2026-05-08 15:01 | 60.15130 | 11.00037 | 2524 ft | 216 kts | 243° |
| 2026-05-08 15:02 | 60.14507 | 10.97145 | 2656 ft | 236 kts | 244° |
| 2026-05-08 15:02 | 60.14076 | 10.93888 | 3111 ft | 248 kts | 260° |
| 2026-05-08 15:02 | 60.13953 | 10.90400 | 3699 ft | 252 kts | 262° |
| 2026-05-08 15:02 | 60.13847 | 10.86903 | 4366 ft | 251 kts | 262° |
| 2026-05-08 15:03 | 60.13733 | 10.83387 | 4982 ft | 254 kts | 262° |
| 2026-05-08 15:03 | 60.13656 | 10.81042 | 5369 ft | 255 kts | 262° |
| 2026-05-08 15:03 | 60.13539 | 10.77492 | 5978 ft | 256 kts | 262° |
| 2026-05-08 15:03 | 60.13417 | 10.73920 | 6529 ft | 258 kts | 262° |
| 2026-05-08 15:04 | 60.13297 | 10.70302 | 7036 ft | 262 kts | 264° |
| 2026-05-08 15:04 | 60.13508 | 10.66636 | 7520 ft | 271 kts | 282° |
| 2026-05-08 15:04 | 60.14359 | 10.63218 | 8036 ft | 280 kts | 303° |
| 2026-05-08 15:04 | 60.15802 | 10.60536 | 8541 ft | 289 kts | 324° |
| 2026-05-08 15:05 | 60.17591 | 10.58637 | 9065 ft | 292 kts | 330° |
| 2026-05-08 15:05 | 60.19411 | 10.56820 | 9559 ft | 293 kts | 329° |
| 2026-05-08 15:05 | 60.21238 | 10.54978 | 10059 ft | 294 kts | 330° |
| 2026-05-08 15:05 | 60.23078 | 10.53120 | 10401 ft | 299 kts | 330° |
| 2026-05-08 15:06 | 60.25030 | 10.51408 | 10523 ft | 312 kts | 336° |
| 2026-05-08 15:06 | 60.27093 | 10.49848 | 10645 ft | 321 kts | 336° |
| 2026-05-08 15:06 | 60.29208 | 10.48243 | 10772 ft | 328 kts | 336° |
| 2026-05-08 15:06 | 60.31359 | 10.46594 | 10920 ft | 333 kts | 336° |
| 2026-05-08 15:07 | 60.33532 | 10.44925 | 11159 ft | 334 kts | 336° |
| 2026-05-08 15:07 | 60.35709 | 10.43250 | 11412 ft | 336 kts | 335° |
| 2026-05-08 15:07 | 60.37896 | 10.41549 | 11633 ft | 337 kts | 335° |
| 2026-05-08 15:07 | 60.40093 | 10.39846 | 11826 ft | 339 kts | 335° |
| 2026-05-08 15:08 | 60.42297 | 10.38131 | 12053 ft | 340 kts | 335° |
| 2026-05-08 15:08 | 60.44476 | 10.36435 | 12268 ft | 341 kts | 336° |
| 2026-05-08 15:08 | 60.46690 | 10.34707 | 12478 ft | 341 kts | 335° |
| 2026-05-08 15:08 | 60.48845 | 10.32700 | 12683 ft | 340 kts | 328° |
| 2026-05-08 15:09 | 60.50896 | 10.30308 | 12879 ft | 341 kts | 326° |
| 2026-05-08 15:09 | 60.52947 | 10.27877 | 13078 ft | 342 kts | 326° |
| 2026-05-08 15:09 | 60.55036 | 10.25414 | 13300 ft | 343 kts | 326° |
| 2026-05-08 15:09 | 60.57076 | 10.23010 | 13503 ft | 344 kts | 326° |
| 2026-05-08 15:10 | 60.59147 | 10.20565 | 13727 ft | 344 kts | 327° |
| 2026-05-08 15:10 | 60.61219 | 10.18109 | 13891 ft | 346 kts | 326° |
| 2026-05-08 15:10 | 60.63301 | 10.15634 | 14030 ft | 347 kts | 326° |
| 2026-05-08 15:10 | 60.65389 | 10.13147 | 14185 ft | 348 kts | 326° |
| 2026-05-08 15:11 | 60.67481 | 10.10656 | 14352 ft | 348 kts | 326° |
| 2026-05-08 15:11 | 60.69575 | 10.08163 | 14533 ft | 349 kts | 326° |
| 2026-05-08 15:11 | 60.71668 | 10.05656 | 14708 ft | 349 kts | 326° |
| 2026-05-08 15:11 | 60.73768 | 10.03153 | 14846 ft | 350 kts | 326° |
| 2026-05-08 15:12 | 60.75871 | 10.00644 | 14991 ft | 350 kts | 326° |
| 2026-05-08 15:12 | 60.77975 | 9.98112 | 15124 ft | 351 kts | 326° |
| 2026-05-08 15:12 | 60.80070 | 9.95531 | 15249 ft | 350 kts | 322° |
| 2026-05-08 15:12 | 60.81966 | 9.92454 | 15375 ft | 347 kts | 313° |
| 2026-05-08 15:13 | 60.83589 | 9.88834 | 15493 ft | 343 kts | 305° |
| 2026-05-08 15:13 | 60.85070 | 9.84998 | 15619 ft | 344 kts | 304° |
| 2026-05-08 15:13 | 60.86553 | 9.81149 | 15747 ft | 344 kts | 304° |
| 2026-05-08 15:13 | 60.88045 | 9.77302 | 15870 ft | 345 kts | 304° |
| 2026-05-08 15:14 | 60.89540 | 9.73446 | 15995 ft | 346 kts | 304° |
| 2026-05-08 15:14 | 60.91037 | 9.69581 | 16130 ft | 346 kts | 304° |
| 2026-05-08 15:14 | 60.92535 | 9.65707 | 16271 ft | 346 kts | 304° |
| 2026-05-08 15:14 | 60.94028 | 9.61825 | 16404 ft | 346 kts | 304° |
| 2026-05-08 15:15 | 60.95522 | 9.57939 | 16534 ft | 346 kts | 304° |
| 2026-05-08 15:15 | 60.97016 | 9.54054 | 16661 ft | 346 kts | 304° |
| 2026-05-08 15:15 | 60.98492 | 9.50213 | 16792 ft | 346 kts | 304° |
| 2026-05-08 15:15 | 60.99976 | 9.46313 | 16923 ft | 346 kts | 304° |
| 2026-05-08 15:16 | 61.01465 | 9.42415 | 17063 ft | 346 kts | 304° |
| 2026-05-08 15:16 | 61.02947 | 9.38525 | 17201 ft | 345 kts | 304° |
| 2026-05-08 15:16 | 61.04435 | 9.34628 | 17333 ft | 345 kts | 306° |
| 2026-05-08 15:16 | 61.06061 | 9.30962 | 17529 ft | 344 kts | 310° |
| 2026-05-08 15:17 | 61.07675 | 9.27492 | 18247 ft | 327 kts | 309° |
| 2026-05-08 15:17 | 61.09243 | 9.24101 | 18882 ft | 326 kts | 309° |
| 2026-05-08 15:17 | 61.10839 | 9.20634 | 19139 ft | 342 kts | 309° |
| 2026-05-08 15:17 | 61.12524 | 9.16976 | 19418 ft | 355 kts | 309° |
| 2026-05-08 15:18 | 61.14221 | 9.13270 | 20095 ft | 356 kts | 309° |
| 2026-05-08 15:18 | 61.15927 | 9.09507 | 20712 ft | 360 kts | 308° |
| 2026-05-08 15:18 | 61.17652 | 9.05712 | 21361 ft | 364 kts | 308° |
| 2026-05-08 15:18 | 61.19402 | 9.01886 | 21949 ft | 368 kts | 308° |
| 2026-05-08 15:19 | 61.21167 | 8.98006 | 22531 ft | 371 kts | 308° |
| 2026-05-08 15:19 | 61.22949 | 8.94077 | 23125 ft | 375 kts | 308° |
| 2026-05-08 15:19 | 61.24748 | 8.90113 | 23720 ft | 379 kts | 307° |
| 2026-05-08 15:19 | 61.26564 | 8.86076 | 24319 ft | 384 kts | 307° |
| 2026-05-08 15:20 | 61.28399 | 8.82008 | 25000 ft | 388 kts | 308° |
| 2026-05-08 15:20 | 61.30253 | 8.77893 | 25624 ft | 392 kts | 307° |
| 2026-05-08 15:20 | 61.32121 | 8.73729 | 26197 ft | 395 kts | 307° |
| 2026-05-08 15:20 | 61.34004 | 8.69530 | 26746 ft | 399 kts | 307° |
| 2026-05-08 15:21 | 61.35905 | 8.65290 | 27275 ft | 402 kts | 308° |
| 2026-05-08 15:21 | 61.37824 | 8.61018 | 27814 ft | 405 kts | 308° |
| 2026-05-08 15:21 | 61.39758 | 8.56682 | 28172 ft | 409 kts | 307° |
| 2026-05-08 15:21 | 61.41691 | 8.52333 | 28214 ft | 409 kts | 308° |
| 2026-05-08 15:22 | 61.45534 | 8.43691 | 28236 ft | 408 kts | 307° |
| 2026-05-08 15:22 | 61.49369 | 8.34994 | 27914 ft | 405 kts | 307° |
| 2026-05-08 15:23 | 61.51274 | 8.30671 | 27643 ft | 403 kts | 307° |
| 2026-05-08 15:23 | 61.53172 | 8.26368 | 27375 ft | 401 kts | 307° |
| 2026-05-08 15:23 | 61.55064 | 8.22078 | 27109 ft | 399 kts | 307° |
| 2026-05-08 15:23 | 61.56935 | 8.17802 | 26779 ft | 397 kts | 307° |
| 2026-05-08 15:24 | 61.58803 | 8.13528 | 26341 ft | 395 kts | 307° |
| 2026-05-08 15:24 | 61.60653 | 8.09277 | 25925 ft | 392 kts | 307° |
| 2026-05-08 15:24 | 61.62493 | 8.05045 | 25503 ft | 391 kts | 307° |
| 2026-05-08 15:24 | 61.64328 | 8.00846 | 25085 ft | 390 kts | 307° |
| 2026-05-08 15:25 | 61.66251 | 7.96815 | 24670 ft | 391 kts | 313° |
| 2026-05-08 15:25 | 61.68276 | 7.93112 | 24256 ft | 390 kts | 314° |
| 2026-05-08 15:25 | 61.70325 | 7.89367 | 23891 ft | 389 kts | 314° |
| 2026-05-08 15:25 | 61.72357 | 7.85637 | 23490 ft | 386 kts | 314° |
| 2026-05-08 15:26 | 61.74375 | 7.81929 | 23096 ft | 384 kts | 313° |
| 2026-05-08 15:26 | 61.76382 | 7.78237 | 22658 ft | 381 kts | 313° |
| 2026-05-08 15:26 | 61.78367 | 7.74569 | 22208 ft | 378 kts | 313° |
| 2026-05-08 15:26 | 61.80064 | 7.71415 | 21807 ft | 376 kts | 313° |
| 2026-05-08 15:27 | 61.82020 | 7.67773 | 21364 ft | 373 kts | 313° |
| 2026-05-08 15:27 | 61.83962 | 7.64151 | 20935 ft | 371 kts | 313° |
| 2026-05-08 15:27 | 61.85895 | 7.60572 | 20533 ft | 367 kts | 313° |
| 2026-05-08 15:27 | 61.87799 | 7.57016 | 20132 ft | 363 kts | 313° |
| 2026-05-08 15:28 | 61.89682 | 7.53487 | 19736 ft | 360 kts | 313° |
| 2026-05-08 15:28 | 61.91550 | 7.49996 | 19428 ft | 355 kts | 313° |
| 2026-05-08 15:28 | 61.93383 | 7.46558 | 19161 ft | 348 kts | 313° |
| 2026-05-08 15:28 | 61.95184 | 7.43184 | 18910 ft | 342 kts | 313° |
| 2026-05-08 15:29 | 61.96946 | 7.39868 | 18655 ft | 336 kts | 312° |
| 2026-05-08 15:29 | 61.98679 | 7.36599 | 18429 ft | 330 kts | 313° |
| 2026-05-08 15:29 | 62.00355 | 7.33411 | 18155 ft | 323 kts | 309° |
| 2026-05-08 15:29 | 62.01572 | 7.29594 | 17884 ft | 304 kts | 285° |
| 2026-05-08 15:30 | 62.01931 | 7.25312 | 17605 ft | 287 kts | 262° |
| 2026-05-08 15:30 | 62.01494 | 7.21301 | 17338 ft | 274 kts | 242° |
| 2026-05-08 15:30 | 62.00416 | 7.18070 | 17161 ft | 264 kts | 222° |
| 2026-05-08 15:30 | 61.98926 | 7.15962 | 17120 ft | 253 kts | 204° |
| 2026-05-08 15:31 | 61.97250 | 7.15089 | 17124 ft | 246 kts | 187° |
| 2026-05-08 15:31 | 61.95556 | 7.15469 | 17126 ft | 249 kts | 169° |
| 2026-05-08 15:31 | 61.93975 | 7.17087 | 17113 ft | 259 kts | 150° |
| 2026-05-08 15:31 | 61.92636 | 7.19719 | 16902 ft | 265 kts | 141° |
| 2026-05-08 15:32 | 61.91370 | 7.22555 | 16581 ft | 264 kts | 141° |
| 2026-05-08 15:32 | 61.90102 | 7.25384 | 16296 ft | 264 kts | 141° |
| 2026-05-08 15:32 | 61.88850 | 7.28214 | 16040 ft | 264 kts | 136° |
| 2026-05-08 15:32 | 61.87927 | 7.31638 | 15770 ft | 274 kts | 114° |
| 2026-05-08 15:33 | 61.87639 | 7.35668 | 15417 ft | 283 kts | 91° |
| 2026-05-08 15:33 | 61.88116 | 7.39738 | 15076 ft | 289 kts | 65° |
| 2026-05-08 15:33 | 61.89328 | 7.43122 | 14758 ft | 290 kts | 39° |
| 2026-05-08 15:33 | 61.91054 | 7.45231 | 14450 ft | 285 kts | 13° |
| 2026-05-08 15:34 | 61.92981 | 7.45772 | 14140 ft | 276 kts | 349° |
| 2026-05-08 15:34 | 61.94785 | 7.44783 | 13851 ft | 263 kts | 326° |
| 2026-05-08 15:34 | 61.96241 | 7.42605 | 13529 ft | 252 kts | 308° |
| 2026-05-08 15:34 | 61.97453 | 7.39944 | 13192 ft | 250 kts | 306° |
| 2026-05-08 15:35 | 61.98653 | 7.37268 | 12897 ft | 249 kts | 306° |
| 2026-05-08 15:35 | 61.99852 | 7.34611 | 12548 ft | 249 kts | 307° |
| 2026-05-08 15:35 | 62.01002 | 7.31898 | 12299 ft | 243 kts | 297° |
| 2026-05-08 15:35 | 62.01723 | 7.28803 | 12074 ft | 232 kts | 279° |
| 2026-05-08 15:36 | 62.01940 | 7.25479 | 11765 ft | 222 kts | 263° |
| 2026-05-08 15:36 | 62.01814 | 7.23288 | 11400 ft | 221 kts | 251° |
| 2026-05-08 15:36 | 62.00974 | 7.19429 | 10999 ft | 216 kts | 232° |
| 2026-05-08 15:36 | 61.99929 | 7.17180 | 10783 ft | 211 kts | 216° |
| 2026-05-08 15:37 | 61.98647 | 7.15701 | 10530 ft | 210 kts | 200° |
| 2026-05-08 15:37 | 61.97216 | 7.15060 | 10291 ft | 212 kts | 186° |
| 2026-05-08 15:37 | 61.95743 | 7.15348 | 10144 ft | 216 kts | 170° |
| 2026-05-08 15:37 | 61.94336 | 7.16584 | 10124 ft | 224 kts | 154° |
| 2026-05-08 15:38 | 61.93111 | 7.18768 | 10121 ft | 238 kts | 135° |
| 2026-05-08 15:38 | 61.92237 | 7.21852 | 10128 ft | 251 kts | 115° |
| 2026-05-08 15:38 | 61.91902 | 7.25536 | 10131 ft | 260 kts | 93° |
| 2026-05-08 15:38 | 61.92215 | 7.29352 | 10135 ft | 267 kts | 70° |
| 2026-05-08 15:39 | 61.93171 | 7.32735 | 10134 ft | 268 kts | 47° |
| 2026-05-08 15:39 | 61.94631 | 7.35154 | 10135 ft | 267 kts | 23° |
| 2026-05-08 15:39 | 61.96385 | 7.36277 | 10137 ft | 262 kts | 0° |
| 2026-05-08 15:39 | 61.98166 | 7.36010 | 10125 ft | 253 kts | 338° |
| 2026-05-08 15:40 | 61.99733 | 7.34520 | 10125 ft | 243 kts | 318° |
| 2026-05-08 15:40 | 62.00928 | 7.32076 | 10132 ft | 236 kts | 303° |
| 2026-05-08 15:40 | 62.01960 | 7.29359 | 10128 ft | 236 kts | 302° |
| 2026-05-08 15:40 | 62.02968 | 7.26682 | 10124 ft | 235 kts | 302° |
| 2026-05-08 15:41 | 62.04003 | 7.23932 | 10130 ft | 235 kts | 302° |
| 2026-05-08 15:41 | 62.05029 | 7.21218 | 10129 ft | 236 kts | 302° |
| 2026-05-08 15:41 | 62.06048 | 7.18518 | 10114 ft | 239 kts | 301° |
| 2026-05-08 15:41 | 62.07094 | 7.15729 | 10119 ft | 242 kts | 301° |
| 2026-05-08 15:42 | 62.08146 | 7.12930 | 10114 ft | 242 kts | 300° |
| 2026-05-08 15:42 | 62.09199 | 7.10136 | 10106 ft | 242 kts | 300° |
| 2026-05-08 15:42 | 62.10251 | 7.07323 | 10112 ft | 242 kts | 301° |
| 2026-05-08 15:42 | 62.11301 | 7.04519 | 10103 ft | 241 kts | 301° |
| 2026-05-08 15:43 | 62.12350 | 7.01713 | 10105 ft | 242 kts | 301° |
| 2026-05-08 15:43 | 62.13401 | 6.98900 | 10106 ft | 242 kts | 301° |
| 2026-05-08 15:43 | 62.14593 | 6.96145 | 10116 ft | 270 kts | 308° |
| 2026-05-08 15:43 | 62.15992 | 6.93221 | 10113 ft | 287 kts | 309° |
| 2026-05-08 15:44 | 62.17436 | 6.90217 | 10105 ft | 291 kts | 308° |
| 2026-05-08 15:44 | 62.18888 | 6.87179 | 10111 ft | 292 kts | 309° |
| 2026-05-08 15:44 | 62.20335 | 6.84142 | 10103 ft | 292 kts | 308° |
| 2026-05-08 15:44 | 62.21783 | 6.81082 | 10104 ft | 292 kts | 308° |
| 2026-05-08 15:45 | 62.23223 | 6.78024 | 10102 ft | 291 kts | 308° |
| 2026-05-08 15:45 | 62.24668 | 6.74980 | 10096 ft | 291 kts | 308° |
| 2026-05-08 15:45 | 62.26109 | 6.71925 | 10104 ft | 293 kts | 309° |
| 2026-05-08 15:45 | 62.27554 | 6.68853 | 10106 ft | 292 kts | 309° |
| 2026-05-08 15:46 | 62.28991 | 6.65796 | 10100 ft | 290 kts | 308° |
| 2026-05-08 15:46 | 62.30423 | 6.62740 | 10105 ft | 290 kts | 308° |
| 2026-05-08 15:46 | 62.31848 | 6.59707 | 10052 ft | 284 kts | 309° |
| 2026-05-08 15:46 | 62.33454 | 6.57183 | 9753 ft | 291 kts | 328° |
| 2026-05-08 15:47 | 62.35393 | 6.55911 | 9455 ft | 294 kts | 349° |
| 2026-05-08 15:47 | 62.37425 | 6.56123 | 9179 ft | 294 kts | 11° |
| 2026-05-08 15:47 | 62.39355 | 6.57612 | 8870 ft | 295 kts | 23° |
| 2026-05-08 15:47 | 62.41227 | 6.59408 | 8571 ft | 295 kts | 24° |
| 2026-05-08 15:48 | 62.44957 | 6.62994 | 7987 ft | 291 kts | 24° |
| 2026-05-08 15:48 | 62.46782 | 6.64891 | 7637 ft | 293 kts | 27° |
| 2026-05-08 15:48 | 62.48610 | 6.66908 | 7283 ft | 296 kts | 27° |
| 2026-05-08 15:49 | 62.50437 | 6.68925 | 6993 ft | 294 kts | 27° |
| 2026-05-08 15:49 | 62.52242 | 6.70901 | 6702 ft | 294 kts | 27° |
| 2026-05-08 15:49 | 62.54069 | 6.72891 | 6407 ft | 294 kts | 28° |
| 2026-05-08 15:49 | 62.55969 | 6.74555 | 6095 ft | 296 kts | 14° |
| 2026-05-08 15:50 | 62.57997 | 6.75113 | 5793 ft | 294 kts | 357° |
| 2026-05-08 15:50 | 62.60006 | 6.74499 | 5478 ft | 290 kts | 341° |
| 2026-05-08 15:50 | 62.61854 | 6.72911 | 5188 ft | 282 kts | 332° |
| 2026-05-08 15:50 | 62.63615 | 6.71119 | 5059 ft | 276 kts | 331° |
| 2026-05-08 15:51 | 62.65304 | 6.69278 | 4949 ft | 265 kts | 320° |
| 2026-05-08 15:51 | 62.66484 | 6.66470 | 4837 ft | 243 kts | 290° |
| 2026-05-08 15:51 | 62.66885 | 6.63095 | 4651 ft | 222 kts | 262° |
| 2026-05-08 15:51 | 62.66562 | 6.59891 | 4607 ft | 218 kts | 242° |
| 2026-05-08 15:52 | 62.65938 | 6.56901 | 4493 ft | 216 kts | 240° |
| 2026-05-08 15:52 | 62.65519 | 6.54941 | 4325 ft | 216 kts | 240° |
| 2026-05-08 15:52 | 62.64886 | 6.51989 | 4047 ft | 214 kts | 240° |
| 2026-05-08 15:52 | 62.64262 | 6.49070 | 3751 ft | 212 kts | 240° |
| 2026-05-08 15:53 | 62.63645 | 6.46183 | 3473 ft | 210 kts | 241° |
| 2026-05-08 15:53 | 62.63032 | 6.43325 | 3193 ft | 208 kts | 241° |
| 2026-05-08 15:53 | 62.62423 | 6.40497 | 2912 ft | 205 kts | 241° |
| 2026-05-08 15:53 | 62.61819 | 6.37689 | 2629 ft | 204 kts | 242° |
| 2026-05-08 15:54 | 62.61218 | 6.34901 | 2343 ft | 204 kts | 242° |
| 2026-05-08 15:54 | 62.60619 | 6.32130 | 2064 ft | 202 kts | 242° |
| 2026-05-08 15:54 | 62.60027 | 6.29396 | 1793 ft | 199 kts | 242° |
| 2026-05-08 15:54 | 62.59440 | 6.26681 | 1497 ft | 198 kts | 242° |
| 2026-05-08 15:55 | 62.58858 | 6.23995 | 1223 ft | 195 kts | 243° |
| 2026-05-08 15:55 | 62.57713 | 6.18736 | 706 ft | 191 kts | 245° |
| 2026-05-08 15:55 | 62.57156 | 6.16172 | 493 ft | 183 kts | 246° |
| 2026-05-08 15:56 | 62.56633 | 6.13782 | 214 ft | 172 kts | 249° |
| 2026-05-08 15:56 | 62.56169 | 6.11624 | 107 ft | 137 kts | 249° |
| 2026-05-08 15:56 | 62.55840 | 6.10098 | 54 ft | 64 kts | 243° |
| 2026-05-08 15:56 | 62.55748 | 6.09615 | 48 ft | 12 kts | 220° |